UAL4587 CYVR-KPDX
Flight info
| Callsign | UAL4587 |
|---|---|
| Flight time | 0h 41m |
| Altitude | 31000 |
| Route | SEA DCT BUWZO KRATR2 |
| Aircraft | B738/M-SDE2E3FGHIRWXY/LB1 |
Departure
| Time | 2026-05-04 21:14 |
|---|---|
| Airport | Vancouver International Airport (CYVR) |
Arrival
| Time | 2026-05-04 21:55 |
|---|---|
| Airport | Portland International Airport (KPDX) |
| Time | Latitude | Longitude | Altitude | Speed | Heading |
|---|---|---|---|---|---|
| 2026-05-04 20:52 | 49.19179 | -123.18158 | 18 ft | 0 kts | 9° |
| 2026-05-04 21:05 | 49.19166 | -123.18161 | 18 ft | 2 kts | 9° |
| 2026-05-04 21:05 | 49.19152 | -123.18165 | 18 ft | 2 kts | 10° |
| 2026-05-04 21:05 | 49.19136 | -123.18169 | 18 ft | 2 kts | 17° |
| 2026-05-04 21:06 | 49.19124 | -123.18182 | 18 ft | 2 kts | 51° |
| 2026-05-04 21:06 | 49.19117 | -123.18202 | 18 ft | 2 kts | 80° |
| 2026-05-04 21:06 | 49.19117 | -123.18216 | 18 ft | 0 kts | 98° |
| 2026-05-04 21:06 | 49.19118 | -123.18227 | 18 ft | 0 kts | 100° |
| 2026-05-04 21:08 | 49.19118 | -123.18226 | 18 ft | 0 kts | 100° |
| 2026-05-04 21:08 | 49.19117 | -123.18213 | 18 ft | 1 kts | 100° |
| 2026-05-04 21:08 | 49.19114 | -123.18188 | 18 ft | 2 kts | 100° |
| 2026-05-04 21:09 | 49.19109 | -123.18144 | 18 ft | 6 kts | 100° |
| 2026-05-04 21:09 | 49.19096 | -123.18064 | 18 ft | 9 kts | 123° |
| 2026-05-04 21:09 | 49.19030 | -123.18049 | 18 ft | 10 kts | 188° |
| 2026-05-04 21:09 | 49.18964 | -123.18066 | 18 ft | 9 kts | 191° |
| 2026-05-04 21:10 | 49.18910 | -123.18053 | 18 ft | 7 kts | 116° |
| 2026-05-04 21:10 | 49.18900 | -123.17964 | 17 ft | 10 kts | 98° |
| 2026-05-04 21:10 | 49.18885 | -123.17825 | 15 ft | 15 kts | 101° |
| 2026-05-04 21:10 | 49.18864 | -123.17645 | 15 ft | 18 kts | 100° |
| 2026-05-04 21:11 | 49.18839 | -123.17431 | 15 ft | 22 kts | 101° |
| 2026-05-04 21:11 | 49.18809 | -123.17185 | 15 ft | 25 kts | 95° |
| 2026-05-04 21:11 | 49.18783 | -123.16926 | 15 ft | 24 kts | 101° |
| 2026-05-04 21:11 | 49.18753 | -123.16681 | 15 ft | 23 kts | 101° |
| 2026-05-04 21:12 | 49.18727 | -123.16443 | 15 ft | 22 kts | 101° |
| 2026-05-04 21:12 | 49.18681 | -123.16270 | 15 ft | 17 kts | 135° |
| 2026-05-04 21:12 | 49.18581 | -123.16197 | 15 ft | 16 kts | 195° |
| 2026-05-04 21:12 | 49.18508 | -123.16228 | 15 ft | 2 kts | 197° |
| 2026-05-04 21:13 | 49.18490 | -123.16265 | 15 ft | 7 kts | 279° |
| 2026-05-04 21:13 | 49.18515 | -123.16458 | 15 ft | 46 kts | 279° |
| 2026-05-04 21:13 | 49.18623 | -123.17385 | 15 ft | 128 kts | 281° |
| 2026-05-04 21:13 | 49.18813 | -123.19011 | 272 ft | 172 kts | 279° |
| 2026-05-04 21:14 | 49.19003 | -123.20736 | 1315 ft | 165 kts | 278° |
| 2026-05-04 21:14 | 49.19116 | -123.22388 | 2141 ft | 162 kts | 267° |
| 2026-05-04 21:14 | 49.18618 | -123.23987 | 2614 ft | 180 kts | 223° |
| 2026-05-04 21:14 | 49.17458 | -123.24822 | 3116 ft | 198 kts | 191° |
| 2026-05-04 21:15 | 49.16040 | -123.24692 | 3606 ft | 218 kts | 163° |
| 2026-05-04 21:15 | 49.14576 | -123.23822 | 4182 ft | 235 kts | 158° |
| 2026-05-04 21:15 | 49.13082 | -123.22875 | 5041 ft | 237 kts | 159° |
| 2026-05-04 21:15 | 49.11540 | -123.21965 | 5872 ft | 241 kts | 160° |
| 2026-05-04 21:16 | 49.09952 | -123.21069 | 6588 ft | 250 kts | 161° |
| 2026-05-04 21:16 | 49.08280 | -123.20138 | 7180 ft | 265 kts | 160° |
| 2026-05-04 21:16 | 49.06520 | -123.19157 | 7755 ft | 280 kts | 160° |
| 2026-05-04 21:16 | 49.04630 | -123.18101 | 8373 ft | 294 kts | 160° |
| 2026-05-04 21:17 | 49.02711 | -123.17028 | 9146 ft | 300 kts | 160° |
| 2026-05-04 21:17 | 49.00735 | -123.15923 | 9986 ft | 305 kts | 160° |
| 2026-05-04 21:17 | 48.98721 | -123.14798 | 10610 ft | 318 kts | 159° |
| 2026-05-04 21:17 | 48.96599 | -123.13613 | 11085 ft | 333 kts | 159° |
| 2026-05-04 21:18 | 48.94418 | -123.12398 | 11839 ft | 339 kts | 159° |
| 2026-05-04 21:18 | 48.92192 | -123.11159 | 12690 ft | 343 kts | 159° |
| 2026-05-04 21:18 | 48.89932 | -123.09902 | 13442 ft | 349 kts | 159° |
| 2026-05-04 21:18 | 48.87654 | -123.08637 | 14189 ft | 354 kts | 159° |
| 2026-05-04 21:19 | 48.85355 | -123.07361 | 14900 ft | 359 kts | 159° |
| 2026-05-04 21:19 | 48.82999 | -123.06054 | 15683 ft | 365 kts | 159° |
| 2026-05-04 21:19 | 48.80603 | -123.04726 | 16461 ft | 369 kts | 159° |
| 2026-05-04 21:19 | 48.78200 | -123.03397 | 17196 ft | 374 kts | 159° |
| 2026-05-04 21:20 | 48.75739 | -123.02035 | 17905 ft | 380 kts | 159° |
| 2026-05-04 21:20 | 48.73249 | -123.00661 | 18643 ft | 384 kts | 159° |
| 2026-05-04 21:20 | 48.70748 | -122.99281 | 19314 ft | 389 kts | 159° |
| 2026-05-04 21:20 | 48.68203 | -122.97880 | 19997 ft | 393 kts | 159° |
| 2026-05-04 21:21 | 48.65616 | -122.96457 | 20655 ft | 398 kts | 159° |
| 2026-05-04 21:21 | 48.63018 | -122.95028 | 21305 ft | 402 kts | 159° |
| 2026-05-04 21:21 | 48.60360 | -122.93569 | 21943 ft | 406 kts | 159° |
| 2026-05-04 21:21 | 48.57698 | -122.92109 | 22540 ft | 411 kts | 158° |
| 2026-05-04 21:22 | 48.55001 | -122.90631 | 23116 ft | 415 kts | 159° |
| 2026-05-04 21:22 | 48.52306 | -122.89156 | 23703 ft | 419 kts | 158° |
| 2026-05-04 21:22 | 48.49567 | -122.87659 | 24328 ft | 421 kts | 158° |
| 2026-05-04 21:22 | 48.46779 | -122.86137 | 24872 ft | 425 kts | 158° |
| 2026-05-04 21:23 | 48.43996 | -122.84618 | 25391 ft | 429 kts | 158° |
| 2026-05-04 21:23 | 48.41204 | -122.83097 | 25944 ft | 432 kts | 158° |
| 2026-05-04 21:23 | 48.38345 | -122.81541 | 26468 ft | 435 kts | 158° |
| 2026-05-04 21:23 | 48.35515 | -122.80003 | 26982 ft | 438 kts | 158° |
| 2026-05-04 21:24 | 48.32625 | -122.78434 | 27454 ft | 442 kts | 158° |
| 2026-05-04 21:24 | 48.29727 | -122.76862 | 27969 ft | 445 kts | 158° |
| 2026-05-04 21:24 | 48.26836 | -122.75296 | 28437 ft | 448 kts | 158° |
| 2026-05-04 21:24 | 48.23883 | -122.73699 | 28855 ft | 452 kts | 158° |
| 2026-05-04 21:25 | 48.20924 | -122.72101 | 29352 ft | 454 kts | 158° |
| 2026-05-04 21:25 | 48.17985 | -122.70516 | 29810 ft | 457 kts | 158° |
| 2026-05-04 21:25 | 48.14951 | -122.68881 | 30199 ft | 461 kts | 158° |
| 2026-05-04 21:25 | 48.11958 | -122.67268 | 30674 ft | 463 kts | 158° |
| 2026-05-04 21:26 | 48.08932 | -122.65641 | 30884 ft | 467 kts | 158° |
| 2026-05-04 21:26 | 48.05866 | -122.63995 | 30896 ft | 465 kts | 157° |
| 2026-05-04 21:26 | 47.99772 | -122.60734 | 30895 ft | 464 kts | 157° |
| 2026-05-04 21:27 | 47.93594 | -122.57433 | 30890 ft | 465 kts | 158° |
| 2026-05-04 21:27 | 47.87522 | -122.54195 | 30896 ft | 464 kts | 157° |
| 2026-05-04 21:28 | 47.81406 | -122.50940 | 30898 ft | 464 kts | 157° |
| 2026-05-04 21:28 | 47.75311 | -122.47791 | 30897 ft | 465 kts | 161° |
| 2026-05-04 21:29 | 47.68965 | -122.45902 | 30897 ft | 469 kts | 169° |
| 2026-05-04 21:29 | 47.62468 | -122.44692 | 30902 ft | 469 kts | 171° |
| 2026-05-04 21:30 | 47.56037 | -122.43536 | 30903 ft | 468 kts | 171° |
| 2026-05-04 21:30 | 47.49607 | -122.42300 | 30904 ft | 468 kts | 170° |
| 2026-05-04 21:31 | 47.39923 | -122.40324 | 30910 ft | 467 kts | 169° |
| 2026-05-04 21:32 | 47.33514 | -122.38986 | 30908 ft | 467 kts | 169° |
| 2026-05-04 21:32 | 47.27069 | -122.37633 | 30908 ft | 467 kts | 169° |
| 2026-05-04 21:33 | 47.20630 | -122.36280 | 30907 ft | 467 kts | 169° |
| 2026-05-04 21:33 | 47.14241 | -122.34940 | 30798 ft | 463 kts | 170° |
| 2026-05-04 21:33 | 47.11102 | -122.34283 | 30409 ft | 457 kts | 170° |
| 2026-05-04 21:34 | 47.07965 | -122.33629 | 29966 ft | 452 kts | 170° |
| 2026-05-04 21:34 | 47.04871 | -122.32983 | 29550 ft | 446 kts | 170° |
| 2026-05-04 21:34 | 47.01842 | -122.32352 | 29039 ft | 443 kts | 170° |
| 2026-05-04 21:34 | 46.98797 | -122.31718 | 28497 ft | 441 kts | 171° |
| 2026-05-04 21:35 | 46.95771 | -122.31129 | 27954 ft | 439 kts | 172° |
| 2026-05-04 21:35 | 46.92749 | -122.30780 | 27429 ft | 437 kts | 176° |
| 2026-05-04 21:35 | 46.89712 | -122.30673 | 26881 ft | 435 kts | 179° |
| 2026-05-04 21:35 | 46.86679 | -122.30691 | 26334 ft | 433 kts | 180° |
| 2026-05-04 21:36 | 46.83702 | -122.30750 | 25797 ft | 430 kts | 180° |
| 2026-05-04 21:36 | 46.80736 | -122.30813 | 25256 ft | 427 kts | 180° |
| 2026-05-04 21:36 | 46.77774 | -122.30865 | 24719 ft | 424 kts | 180° |
| 2026-05-04 21:36 | 46.74836 | -122.30902 | 24166 ft | 422 kts | 180° |
| 2026-05-04 21:37 | 46.71932 | -122.30927 | 23635 ft | 418 kts | 179° |
| 2026-05-04 21:37 | 46.69037 | -122.30943 | 23104 ft | 415 kts | 179° |
| 2026-05-04 21:37 | 46.66157 | -122.30952 | 22574 ft | 412 kts | 179° |
| 2026-05-04 21:37 | 46.63347 | -122.30958 | 22047 ft | 409 kts | 179° |
| 2026-05-04 21:38 | 46.60480 | -122.30961 | 21519 ft | 406 kts | 179° |
| 2026-05-04 21:38 | 46.57703 | -122.30963 | 21001 ft | 403 kts | 179° |
| 2026-05-04 21:38 | 46.54903 | -122.30964 | 20478 ft | 400 kts | 179° |
| 2026-05-04 21:38 | 46.52132 | -122.30965 | 19954 ft | 397 kts | 179° |
| 2026-05-04 21:39 | 46.49405 | -122.30965 | 19440 ft | 394 kts | 179° |
| 2026-05-04 21:39 | 46.46683 | -122.30964 | 18939 ft | 391 kts | 179° |
| 2026-05-04 21:39 | 46.43983 | -122.30963 | 18425 ft | 388 kts | 179° |
| 2026-05-04 21:39 | 46.41267 | -122.30962 | 17914 ft | 385 kts | 179° |
| 2026-05-04 21:40 | 46.38636 | -122.30962 | 17431 ft | 382 kts | 179° |
| 2026-05-04 21:40 | 46.35994 | -122.30962 | 16935 ft | 379 kts | 179° |
| 2026-05-04 21:40 | 46.33376 | -122.30962 | 16446 ft | 376 kts | 179° |
| 2026-05-04 21:40 | 46.30759 | -122.30962 | 15937 ft | 374 kts | 179° |
| 2026-05-04 21:41 | 46.28179 | -122.30992 | 15440 ft | 371 kts | 181° |
| 2026-05-04 21:41 | 46.25624 | -122.31318 | 14955 ft | 369 kts | 189° |
| 2026-05-04 21:41 | 46.23157 | -122.32200 | 14460 ft | 366 kts | 198° |
| 2026-05-04 21:41 | 46.20757 | -122.33432 | 13958 ft | 363 kts | 201° |
| 2026-05-04 21:42 | 46.18428 | -122.34783 | 13461 ft | 360 kts | 203° |
| 2026-05-04 21:42 | 46.16134 | -122.36150 | 12976 ft | 358 kts | 203° |
| 2026-05-04 21:42 | 46.13857 | -122.37487 | 12487 ft | 355 kts | 202° |
| 2026-05-04 21:42 | 46.11550 | -122.38814 | 11974 ft | 352 kts | 202° |
| 2026-05-04 21:43 | 46.09306 | -122.40083 | 11527 ft | 348 kts | 201° |
| 2026-05-04 21:43 | 46.07066 | -122.41325 | 11205 ft | 341 kts | 201° |
| 2026-05-04 21:43 | 46.04874 | -122.42512 | 10751 ft | 338 kts | 201° |
| 2026-05-04 21:43 | 46.02662 | -122.43698 | 10292 ft | 335 kts | 201° |
| 2026-05-04 21:44 | 46.00512 | -122.44849 | 10034 ft | 326 kts | 201° |
| 2026-05-04 21:44 | 45.98439 | -122.45959 | 9839 ft | 316 kts | 201° |
| 2026-05-04 21:44 | 45.96392 | -122.47057 | 9424 ft | 314 kts | 201° |
| 2026-05-04 21:44 | 45.94352 | -122.48114 | 9065 ft | 312 kts | 198° |
| 2026-05-04 21:45 | 45.92225 | -122.48727 | 8652 ft | 310 kts | 182° |
| 2026-05-04 21:45 | 45.90097 | -122.48476 | 8283 ft | 307 kts | 170° |
| 2026-05-04 21:45 | 45.88023 | -122.47862 | 7928 ft | 304 kts | 167° |
| 2026-05-04 21:45 | 45.85966 | -122.47198 | 7570 ft | 301 kts | 168° |
| 2026-05-04 21:46 | 45.83928 | -122.46593 | 7229 ft | 300 kts | 169° |
| 2026-05-04 21:46 | 45.81901 | -122.46048 | 6862 ft | 293 kts | 171° |
| 2026-05-04 21:46 | 45.79915 | -122.45548 | 6470 ft | 286 kts | 171° |
| 2026-05-04 21:46 | 45.78004 | -122.45077 | 6122 ft | 278 kts | 171° |
| 2026-05-04 21:47 | 45.76116 | -122.44612 | 5779 ft | 271 kts | 172° |
| 2026-05-04 21:47 | 45.74272 | -122.44157 | 5452 ft | 264 kts | 172° |
| 2026-05-04 21:47 | 45.72482 | -122.43714 | 5126 ft | 257 kts | 172° |
| 2026-05-04 21:47 | 45.70785 | -122.43291 | 4824 ft | 246 kts | 172° |
| 2026-05-04 21:48 | 45.69124 | -122.42879 | 4527 ft | 237 kts | 172° |
| 2026-05-04 21:48 | 45.67532 | -122.42485 | 4358 ft | 226 kts | 172° |
| 2026-05-04 21:48 | 45.66027 | -122.42113 | 4299 ft | 210 kts | 172° |
| 2026-05-04 21:48 | 45.64655 | -122.41770 | 4235 ft | 196 kts | 172° |
| 2026-05-04 21:49 | 45.63353 | -122.41446 | 4175 ft | 184 kts | 172° |
| 2026-05-04 21:49 | 45.62080 | -122.41132 | 4121 ft | 185 kts | 172° |
| 2026-05-04 21:49 | 45.60828 | -122.40826 | 4043 ft | 183 kts | 172° |
| 2026-05-04 21:49 | 45.59551 | -122.40568 | 3802 ft | 187 kts | 178° |
| 2026-05-04 21:50 | 45.58243 | -122.40463 | 3489 ft | 188 kts | 180° |
| 2026-05-04 21:50 | 45.56974 | -122.40363 | 3386 ft | 179 kts | 179° |
| 2026-05-04 21:50 | 45.55731 | -122.40228 | 3283 ft | 179 kts | 179° |
| 2026-05-04 21:50 | 45.54492 | -122.40159 | 3119 ft | 177 kts | 188° |
| 2026-05-04 21:51 | 45.53381 | -122.40784 | 2971 ft | 170 kts | 225° |
| 2026-05-04 21:51 | 45.52711 | -122.42149 | 2840 ft | 168 kts | 247° |
| 2026-05-04 21:51 | 45.52428 | -122.43720 | 2519 ft | 164 kts | 274° |
| 2026-05-04 21:51 | 45.52796 | -122.45237 | 2110 ft | 163 kts | 301° |
| 2026-05-04 21:52 | 45.53383 | -122.46576 | 1821 ft | 156 kts | 300° |
| 2026-05-04 21:52 | 45.53893 | -122.47871 | 1697 ft | 150 kts | 299° |
| 2026-05-04 21:52 | 45.54401 | -122.49149 | 1478 ft | 145 kts | 299° |
| 2026-05-04 21:52 | 45.54900 | -122.50414 | 1292 ft | 147 kts | 299° |
| 2026-05-04 21:53 | 45.55415 | -122.51679 | 1122 ft | 149 kts | 300° |
| 2026-05-04 21:53 | 45.55944 | -122.52984 | 895 ft | 153 kts | 299° |
| 2026-05-04 21:53 | 45.56460 | -122.54303 | 701 ft | 155 kts | 298° |
| 2026-05-04 21:53 | 45.56989 | -122.55650 | 536 ft | 153 kts | 298° |
| 2026-05-04 21:54 | 45.57500 | -122.56983 | 341 ft | 155 kts | 297° |
| 2026-05-04 21:54 | 45.58028 | -122.58335 | 116 ft | 158 kts | 298° |
| 2026-05-04 21:54 | 45.58552 | -122.59673 | 26 ft | 144 kts | 298° |
| 2026-05-04 21:54 | 45.58952 | -122.60700 | 28 ft | 91 kts | 298° |
| 2026-05-04 21:55 | 45.59158 | -122.61228 | 29 ft | 32 kts | 298° |
| 2026-05-04 21:55 | 45.59316 | -122.61311 | 29 ft | 18 kts | 36° |
| 2026-05-04 21:55 | 45.59314 | -122.61153 | 29 ft | 17 kts | 118° |
| 2026-05-04 21:55 | 45.59258 | -122.61008 | 29 ft | 16 kts | 120° |
| 2026-05-04 21:56 | 45.59203 | -122.60870 | 29 ft | 15 kts | 119° |
| 2026-05-04 21:56 | 45.59152 | -122.60738 | 29 ft | 14 kts | 120° |
| 2026-05-04 21:56 | 45.59100 | -122.60615 | 29 ft | 14 kts | 132° |
| 2026-05-04 21:56 | 45.59033 | -122.60519 | 29 ft | 13 kts | 136° |
| 2026-05-04 21:57 | 45.58994 | -122.60414 | 29 ft | 12 kts | 78° |
| 2026-05-04 21:57 | 45.59005 | -122.60305 | 29 ft | 11 kts | 120° |
| 2026-05-04 21:57 | 45.58964 | -122.60204 | 28 ft | 12 kts | 120° |
| 2026-05-04 21:57 | 45.58924 | -122.60098 | 28 ft | 12 kts | 118° |
| 2026-05-04 21:58 | 45.58921 | -122.60025 | 28 ft | 6 kts | 49° |
| 2026-05-04 21:58 | 45.58944 | -122.59981 | 28 ft | 4 kts | 56° |
| 2026-05-04 21:58 | 45.58955 | -122.59956 | 29 ft | 2 kts | 59° |
| 2026-05-04 21:58 | 45.58961 | -122.59943 | 29 ft | 0 kts | 56° |